Time;durP1;ratioP1;P1;durP2;ratioP2;P2;SDS_P1;SDS_P2;PMS_P1;PMS_P2;Temp;Humidity;BMP_temperature;BMP_pressure;BME280_temperature;BME280_humidity;BME280_pressure;Samples;Min_cycle;Max_cycle;Signal;HPM_P1;HPM_P2
2022/09/07 00:00:06;;;;;;;3.87;3.57;;;;;;;15.63;82.70;101634.34;5009427;28;20473;-47
2022/09/07 00:02:34;;;;;;;5.00;2.97;;;;;;;15.65;82.66;101638.47;5009786;28;20445;-46
2022/09/07 00:05:02;;;;;;;3.60;3.00;;;;;;;15.66;82.86;101631.22;5012852;28;20560;-47
2022/09/07 00:07:30;;;;;;;3.10;2.90;;;;;;;15.67;82.63;101617.59;5013605;28;21008;-51
2022/09/07 00:09:58;;;;;;;3.13;2.93;;;;;;;15.68;82.79;101608.47;5011665;28;20456;-47
2022/09/07 00:12:25;;;;;;;2.90;2.70;;;;;;;15.66;83.11;101597.09;5013829;28;20550;-46
2022/09/07 00:14:53;;;;;;;3.23;2.93;;;;;;;15.67;83.07;101601.47;5013674;28;20827;-48
2022/09/07 00:17:22;;;;;;;3.23;3.03;;;;;;;15.68;83.33;101616.53;5013766;28;21241;-48
2022/09/07 00:19:50;;;;;;;3.10;2.90;;;;;;;15.67;83.56;101608.69;5013304;28;20991;-46
2022/09/07 00:22:17;;;;;;;3.30;2.90;;;;;;;15.66;83.21;101607.84;5013612;28;20430;-50
2022/09/07 00:28:09;;;;;;;4.27;2.90;;;;;;;15.68;83.16;101591.53;5013090;28;20495;-53
2022/09/07 00:30:42;;;;;;;3.33;2.77;;;;;;;15.67;83.12;101590.69;5013844;28;20469;-51
2022/09/07 00:33:11;;;;;;;2.87;2.67;;;;;;;15.67;83.14;101587.19;5013628;28;20433;-52
2022/09/07 00:35:42;;;;;;;3.40;3.10;;;;;;;15.67;83.23;101588.00;5013032;28;20436;-47
2022/09/07 00:38:09;;;;;;;3.30;3.00;;;;;;;15.69;83.15;101585.94;5013667;28;20425;-53
2022/09/07 00:40:37;;;;;;;2.80;2.70;;;;;;;15.72;83.03;101590.06;5013773;28;20469;-46
2022/09/07 00:43:06;;;;;;;4.00;2.90;;;;;;;15.73;83.15;101589.03;5013463;28;20432;-46
2022/09/07 00:45:33;;;;;;;3.80;3.50;;;;;;;15.72;83.24;101596.28;5013921;28;20464;-45
2022/09/07 00:48:04;;;;;;;3.73;3.43;;;;;;;15.70;83.94;101582.22;5010181;28;20481;-53
2022/09/07 00:50:37;;;;;;;3.50;3.20;;;;;;;15.72;84.15;101592.75;5012849;28;20842;-52
2022/09/07 00:53:10;;;;;;;4.27;3.40;;;;;;;15.74;83.90;101594.19;5010644;28;20919;-50
2022/09/07 00:55:40;;;;;;;3.63;2.90;;;;;;;15.75;84.02;101605.78;5013461;28;20468;-53
2022/09/07 00:58:09;;;;;;;3.00;2.80;;;;;;;15.76;84.43;101610.97;5013169;28;20432;-49
2022/09/07 01:00:37;;;;;;;3.43;2.93;;;;;;;15.76;84.56;101605.59;5013284;28;20476;-49
2022/09/07 01:03:05;;;;;;;6.23;3.47;;;;;;;15.77;85.02;101607.22;5013797;28;20425;-51
2022/09/07 01:05:38;;;;;;;3.40;3.10;;;;;;;15.76;84.77;101604.75;5013053;28;20798;-50
2022/09/07 01:08:08;;;;;;;3.27;3.03;;;;;;;15.77;84.93;101584.91;5012847;28;20827;-53
2022/09/07 01:10:36;;;;;;;4.53;3.97;;;;;;;15.76;85.34;101581.38;5012524;28;20464;-49
2022/09/07 01:13:04;;;;;;;3.33;3.10;;;;;;;15.73;85.81;101573.72;5012304;28;20448;-49
2022/09/07 01:15:43;;;;;;;4.67;3.00;;;;;;;15.73;86.00;101572.91;5009395;28;20433;-48
2022/09/07 01:18:21;;;;;;;3.10;2.90;;;;;;;15.71;86.06;101578.47;5013047;28;20488;-48
2022/09/07 01:21:18;;;;;;;3.03;2.73;;;;;;;15.71;86.38;101569.59;5011458;28;20464;-47
2022/09/07 01:24:16;;;;;;;3.50;3.20;;;;;;;15.68;86.85;101573.50;5013737;28;20429;-48
2022/09/07 01:27:20;;;;;;;3.03;2.93;;;;;;;15.70;86.65;101573.31;5013018;28;20864;-46
2022/09/07 01:29:56;;;;;;;3.40;3.20;;;;;;;15.69;86.77;101574.34;5012415;28;20958;-46
2022/09/07 01:32:34;;;;;;;3.10;2.60;;;;;;;15.65;87.43;101570.44;5012532;28;20509;-45
2022/09/07 01:35:10;;;;;;;4.87;3.00;;;;;;;15.66;87.51;101566.69;5013053;28;20433;-45
2022/09/07 01:37:45;;;;;;;3.30;2.93;;;;;;;15.67;87.28;101560.28;5013923;28;20452;-48
2022/09/07 01:40:19;;;;;;;3.27;2.97;;;;;;;15.67;87.49;101555.75;5012337;28;20464;-49
2022/09/07 01:42:54;;;;;;;3.00;2.80;;;;;;;15.64;87.45;101550.78;5013838;28;20426;-49
2022/09/07 01:45:27;;;;;;;3.40;3.10;;;;;;;15.63;87.68;101545.59;5013525;28;20433;-47
2022/09/07 01:47:58;;;;;;;4.90;2.80;;;;;;;15.61;88.25;101547.69;5012996;28;20444;-47
2022/09/07 01:50:30;;;;;;;2.90;2.70;;;;;;;15.62;88.36;101544.78;5013350;28;20485;-49
2022/09/07 01:53:06;;;;;;;3.50;3.20;;;;;;;15.62;88.02;101546.66;5012066;28;20433;-50
2022/09/07 01:55:39;;;;;;;3.00;2.80;;;;;;;15.61;88.14;101535.06;5015768;28;20802;-47
2022/09/07 01:58:12;;;;;;;3.17;3.00;;;;;;;15.63;87.57;101553.66;5014407;28;20436;-46
2022/09/07 02:00:45;;;;;;;5.30;2.97;;;;;;;15.61;88.29;101545.84;5012471;28;20495;-51
2022/09/07 02:03:15;;;;;;;3.13;2.83;;;;;;;15.59;88.67;101537.13;5013115;28;20437;-49
2022/09/07 02:05:46;;;;;;;4.23;2.70;;;;;;;15.61;88.18;101547.69;5015024;28;20440;-46
2022/09/07 02:08:19;;;;;;;2.40;2.30;;;;;;;15.61;88.12;101543.16;5013708;28;20956;-46
2022/09/07 02:10:51;;;;;;;3.10;2.90;;;;;;;15.62;88.22;101535.91;5014136;28;20475;-46
2022/09/07 02:13:24;;;;;;;3.50;3.30;;;;;;;15.61;88.04;101526.19;5014964;28;20436;-46
2022/09/07 02:15:59;;;;;;;2.30;2.20;;;;;;;15.56;88.62;101532.16;5014927;28;20465;-48
2022/09/07 02:18:29;;;;;;;5.30;2.90;;;;;;;15.57;88.44;101530.31;5016318;28;20437;-56
2022/09/07 02:20:59;;;;;;;2.80;2.70;;;;;;;15.56;88.61;101518.72;5012831;28;20492;-49
2022/09/07 02:23:32;;;;;;;3.80;3.10;;;;;;;15.56;88.58;101521.41;5016147;28;20474;-55
2022/09/07 02:26:02;;;;;;;7.90;3.23;;;;;;;15.58;88.43;101514.00;5011254;28;20461;-50
2022/09/07 02:28:33;;;;;;;3.40;3.10;;;;;;;15.55;88.63;101510.88;5016526;28;20887;-50
2022/09/07 02:31:02;;;;;;;2.70;2.47;;;;;;;15.56;88.70;101504.47;5014410;28;20471;-46
2022/09/07 02:33:31;;;;;;;3.90;2.90;;;;;;;15.55;88.56;101500.97;5012577;28;20487;-45
2022/09/07 02:36:00;;;;;;;4.67;3.70;;;;;;;15.54;88.45;101495.78;5010951;28;20460;-50
2022/09/07 02:38:28;;;;;;;3.03;2.83;;;;;;;15.54;88.40;101496.63;5009652;28;20441;-51
2022/09/07 02:40:58;;;;;;;3.40;2.90;;;;;;;15.52;88.47;101496.00;5010403;28;20460;-49
2022/09/07 02:43:29;;;;;;;3.10;2.90;;;;;;;15.52;88.34;101487.94;5010998;28;20436;-53
2022/09/07 02:46:24;;;;;;;3.33;3.00;;;;;;;15.53;88.52;101492.25;5011169;28;20448;-51
2022/09/07 02:49:04;;;;;;;6.13;4.27;;;;;;;15.52;88.40;101492.50;5008623;28;20441;-47
2022/09/07 02:51:40;;;;;;;3.27;2.97;;;;;;;15.53;87.99;101496.84;5010297;28;20465;-45
2022/09/07 02:54:27;;;;;;;3.83;3.10;;;;;;;15.54;87.80;101493.94;5010510;28;20428;-48
2022/09/07 02:57:06;;;;;;;4.67;3.40;;;;;;;15.54;87.59;101491.25;5010813;28;20468;-53
2022/09/07 02:59:45;;;;;;;4.03;3.50;;;;;;;15.53;87.20;101488.78;5011286;28;20433;-51
2022/09/07 03:02:22;;;;;;;3.70;3.43;;;;;;;15.52;87.27;101493.31;5010902;28;20444;-49
2022/09/07 03:04:58;;;;;;;3.30;3.10;;;;;;;15.53;87.12;101483.41;5010335;28;20437;-49
2022/09/07 03:07:31;;;;;;;3.50;3.20;;;;;;;15.52;87.05;101482.56;5011062;28;20448;-52
2022/09/07 03:10:04;;;;;;;5.10;3.67;;;;;;;15.52;86.93;101479.88;5010892;28;20472;-47
2022/09/07 03:12:40;;;;;;;3.47;3.10;;;;;;;15.52;86.74;101487.13;5011665;28;20532;-53
2022/09/07 03:15:11;;;;;;;3.70;3.40;;;;;;;15.50;86.62;101487.34;5010563;28;20433;-53
2022/09/07 03:17:41;;;;;;;3.80;3.37;;;;;;;15.48;86.47;101482.16;5011283;28;20831;-53
2022/09/07 03:20:09;;;;;;;4.30;3.50;;;;;;;15.47;86.45;101483.19;5010748;28;20475;-48
2022/09/07 03:22:38;;;;;;;3.27;3.03;;;;;;;15.48;86.34;101486.72;5010860;28;20435;-50
2022/09/07 03:25:07;;;;;;;4.90;4.00;;;;;;;15.46;86.22;101491.44;5009892;28;20957;-49
2022/09/07 03:27:34;;;;;;;3.30;3.10;;;;;;;15.45;86.28;101479.84;5012173;28;20451;-48
2022/09/07 03:30:03;;;;;;;4.03;3.83;;;;;;;15.43;86.15;101473.88;5010553;28;20465;-52
2022/09/07 03:32:32;;;;;;;5.47;3.13;;;;;;;15.41;86.30;101473.25;5011371;28;20456;-46
2022/09/07 03:35:02;;;;;;;3.97;3.67;;;;;;;15.38;86.31;101472.88;5009727;28;20433;-48
2022/09/07 03:37:30;;;;;;;5.60;4.47;;;;;;;15.36;86.46;101477.59;5013930;28;20453;-51
2022/09/07 03:39:57;;;;;;;3.80;3.60;;;;;;;15.36;86.98;101472.22;5020830;28;20826;-48
2022/09/07 03:42:25;;;;;;;5.30;3.80;;;;;;;15.38;86.63;101486.31;5024939;28;20447;-48
2022/09/07 03:44:53;;;;;;;3.50;3.30;;;;;;;15.38;86.54;101478.25;5035065;28;20436;-49
2022/09/07 03:47:20;;;;;;;3.70;3.47;;;;;;;15.38;86.15;101479.03;5033602;28;21043;-51
2022/09/07 03:49:50;;;;;;;4.43;4.13;;;;;;;15.38;86.16;101475.56;5034426;28;20464;-48
2022/09/07 03:52:19;;;;;;;3.90;3.60;;;;;;;15.38;86.19;101481.72;5026621;28;20437;-46
2022/09/07 03:54:46;;;;;;;3.50;3.40;;;;;;;15.37;86.04;101482.78;5029504;28;20435;-50
2022/09/07 03:57:14;;;;;;;3.93;3.63;;;;;;;15.36;85.68;101480.28;5015244;28;20457;-49
2022/09/07 03:59:42;;;;;;;4.90;3.30;;;;;;;15.33;85.54;101473.47;5014728;28;20444;-50
2022/09/07 04:02:10;;;;;;;3.90;3.53;;;;;;;15.31;85.70;101467.50;5028845;23;20500;-40
2022/09/07 04:04:38;;;;;;;4.03;3.73;;;;;;;15.27;86.44;101471.63;5015270;28;20425;-40
2022/09/07 04:07:05;;;;;;;3.73;3.53;;;;;;;15.25;86.73;101460.28;5015149;28;20433;-40
2022/09/07 04:09:34;;;;;;;6.80;4.00;;;;;;;15.23;86.99;101462.31;5014566;28;20433;-42
2022/09/07 04:12:03;;;;;;;5.10;4.70;;;;;;;15.20;87.53;101453.88;5014770;28;20449;-40
2022/09/07 04:14:30;;;;;;;4.60;4.20;;;;;;;15.20;88.01;101453.88;5014896;28;20441;-42
2022/09/07 04:16:58;;;;;;;4.10;3.70;;;;;;;15.20;87.79;101451.19;5015168;28;20433;-44
2022/09/07 04:19:26;;;;;;;4.30;4.10;;;;;;;15.19;87.94;101452.22;5015103;28;20433;-39
2022/09/07 04:21:53;;;;;;;6.07;4.50;;;;;;;15.19;88.00;101453.03;5014409;28;20441;-39
2022/09/07 04:24:21;;;;;;;5.90;4.40;;;;;;;15.16;88.54;101447.25;5015077;28;20429;-40
2022/09/07 04:26:50;;;;;;;6.93;4.60;;;;;;;15.19;88.94;101441.47;5014764;28;20441;-41
2022/09/07 04:29:18;;;;;;;6.80;4.20;;;;;;;15.20;89.14;101437.75;5014617;28;20437;-40
2022/09/07 04:31:46;;;;;;;4.60;3.90;;;;;;;15.19;89.61;101434.25;5014010;28;20480;-43
2022/09/07 04:34:14;;;;;;;4.40;3.57;;;;;;;15.23;89.70;101423.91;5014552;28;20430;-41
2022/09/07 04:36:42;;;;;;;4.40;4.00;;;;;;;15.25;90.07;101430.72;5015094;28;20440;-42
2022/09/07 04:39:10;;;;;;;4.20;3.80;;;;;;;15.28;89.66;101414.16;5014959;28;20437;-39
2022/09/07 04:41:38;;;;;;;4.10;3.70;;;;;;;15.30;89.44;101419.31;5013937;28;20811;-40
2022/09/07 04:44:07;;;;;;;4.23;3.70;;;;;;;15.30;89.46;101420.16;5014397;28;20435;-40
2022/09/07 04:46:36;;;;;;;4.80;4.13;;;;;;;15.30;89.64;101422.00;5014529;28;20448;-42
2022/09/07 04:49:07;;;;;;;4.53;4.13;;;;;;;15.31;89.26;101412.91;5014502;28;20425;-40
2022/09/07 04:51:35;;;;;;;4.77;4.23;;;;;;;15.33;89.29;101398.22;5012500;28;20498;-41
2022/09/07 04:54:04;;;;;;;4.40;4.10;;;;;;;15.32;89.37;101401.16;5021896;28;20853;-40
2022/09/07 04:56:32;;;;;;;4.70;4.27;;;;;;;15.34;89.41;101402.59;5033029;28;20463;-41
2022/09/07 04:59:01;;;;;;;6.50;4.30;;;;;;;15.36;89.25;101394.28;5033939;28;20438;-42
2022/09/07 05:01:30;;;;;;;4.13;3.93;;;;;;;15.39;88.82;101408.13;5033342;28;21016;-41
2022/09/07 05:03:59;;;;;;;6.80;4.30;;;;;;;15.42;88.35;101409.56;5033751;28;20436;-40
2022/09/07 05:06:28;;;;;;;4.70;4.30;;;;;;;15.43;88.13;101408.53;5033792;28;20443;-42
2022/09/07 05:08:56;;;;;;;4.37;4.10;;;;;;;15.40;88.22;101406.28;5033964;28;20439;-42
2022/09/07 05:11:24;;;;;;;4.67;4.27;;;;;;;15.46;88.08;101405.44;5033290;28;20849;-40
2022/09/07 05:13:56;;;;;;;4.73;4.33;;;;;;;15.48;88.04;101408.75;5033625;28;20848;-41
2022/09/07 05:16:24;;;;;;;4.97;4.67;;;;;;;15.50;87.93;101404.00;5034410;28;20490;-41
2022/09/07 05:18:56;;;;;;;5.03;4.37;;;;;;;15.52;87.59;101414.53;5033696;28;20444;-43
2022/09/07 05:21:26;;;;;;;4.93;4.30;;;;;;;15.56;87.48;101419.25;5033030;28;20860;-41
2022/09/07 05:23:55;;;;;;;5.90;4.80;;;;;;;15.63;87.34;101416.56;5033399;28;20862;-40
2022/09/07 05:26:25;;;;;;;4.20;4.00;;;;;;;15.65;86.97;101427.94;5033614;28;20809;-41
2022/09/07 05:28:53;;;;;;;4.90;4.50;;;;;;;15.69;86.78;101426.44;5033908;28;20436;-41
2022/09/07 05:31:41;;;;;;;4.90;4.60;;;;;;;15.73;86.45;101420.44;5032842;28;20476;-41
2022/09/07 05:34:10;;;;;;;5.73;5.13;;;;;;;15.73;86.17;101423.13;5033303;28;20428;-42
2022/09/07 05:36:58;;;;;;;4.60;4.20;;;;;;;15.79;86.20;101432.22;5033034;28;20436;-42
2022/09/07 05:39:26;;;;;;;7.93;5.23;;;;;;;15.79;85.71;101430.34;5033112;28;20436;-40
2022/09/07 05:41:54;;;;;;;4.80;4.50;;;;;;;15.83;85.63;101434.25;5032645;28;20527;-41
2022/09/07 05:44:22;;;;;;;5.87;5.50;;;;;;;15.85;85.07;101448.31;5033015;28;20432;-40
2022/09/07 05:47:09;;;;;;;5.70;4.53;;;;;;;15.89;85.10;101459.47;5032838;28;20440;-41
2022/09/07 05:49:38;;;;;;;5.03;4.50;;;;;;;15.95;84.98;101469.38;5032665;28;20534;-44
2022/09/07 05:52:06;;;;;;;4.97;4.57;;;;;;;15.98;84.73;101469.75;5025578;28;20488;-39
2022/09/07 05:54:34;;;;;;;4.77;4.53;;;;;;;16.04;85.11;101479.66;5023726;28;20441;-39
2022/09/07 05:57:02;;;;;;;6.50;4.27;;;;;;;16.11;84.93;101478.81;5032801;28;20451;-40
2022/09/07 05:59:29;;;;;;;4.90;4.50;;;;;;;16.15;84.61;101471.97;5032559;28;20432;-39
2022/09/07 06:01:57;;;;;;;4.30;4.10;;;;;;;16.17;83.66;101454.56;5032312;28;20459;-42
2022/09/07 06:04:25;;;;;;;4.70;4.50;;;;;;;16.17;83.36;101442.97;5032642;28;20444;-40
2022/09/07 06:06:54;;;;;;;5.20;4.90;;;;;;;16.13;82.88;101447.94;5032492;28;20432;-42
2022/09/07 06:09:42;;;;;;;5.93;5.23;;;;;;;16.17;83.44;101462.63;5031977;28;20945;-40
2022/09/07 06:12:30;;;;;;;4.90;4.27;;;;;;;16.27;83.47;101481.84;5032084;28;20870;-43
2022/09/07 06:14:59;;;;;;;5.20;4.80;;;;;;;16.33;83.16;101483.69;5032620;28;20431;-41
2022/09/07 06:17:28;;;;;;;6.97;5.03;;;;;;;16.37;82.07;101484.88;5033132;28;20440;-42
2022/09/07 06:19:56;;;;;;;5.60;5.20;;;;;;;16.42;82.08;101474.28;5031990;28;20960;-39
2022/09/07 06:22:25;;;;;;;5.60;5.10;;;;;;;16.43;80.47;101451.69;5032132;28;20448;-40
2022/09/07 06:24:57;;;;;;;5.30;4.77;;;;;;;16.44;79.80;101452.53;5032465;28;20532;-42
2022/09/07 06:27:25;;;;;;;6.43;5.87;;;;;;;16.52;80.16;101463.03;5032321;28;20436;-41
2022/09/07 06:29:52;;;;;;;5.47;5.00;;;;;;;16.63;79.99;101464.25;5031757;28;20459;-41
2022/09/07 06:32:20;;;;;;;5.33;4.87;;;;;;;16.72;78.94;101461.06;5031910;28;20472;-41
2022/09/07 06:35:09;;;;;;;5.73;5.17;;;;;;;16.81;78.79;101451.66;5032084;28;20436;-43
2022/09/07 06:37:38;;;;;;;5.90;5.53;;;;;;;16.77;77.40;101442.38;5032198;28;20439;-40
2022/09/07 06:40:09;;;;;;;5.50;5.10;;;;;;;16.78;77.21;101441.34;5031723;28;20466;-39
2022/09/07 06:42:37;;;;;;;5.40;5.10;;;;;;;16.79;77.01;101442.97;5032113;28;20519;-42
2022/09/07 06:45:05;;;;;;;6.07;5.67;;;;;;;16.81;76.31;101456.22;5032228;28;20506;-41
2022/09/07 06:47:33;;;;;;;5.27;5.07;;;;;;;16.91;77.01;101457.34;5032201;28;20435;-40
2022/09/07 06:50:01;;;;;;;5.77;5.37;;;;;;;16.94;76.16;101459.63;5031504;28;20455;-42
2022/09/07 06:52:29;;;;;;;5.77;5.30;;;;;;;16.98;75.89;101460.84;5024205;28;20481;-42
2022/09/07 06:55:18;;;;;;;5.73;5.33;;;;;;;16.96;74.43;101451.31;5023579;28;20428;-42
2022/09/07 06:57:45;;;;;;;5.90;5.53;;;;;;;16.95;74.74;101458.59;5031932;28;20428;-41
2022/09/07 07:00:14;;;;;;;5.60;5.20;;;;;;;17.04;74.79;101462.66;5031472;28;20467;-42
2022/09/07 07:02:41;;;;;;;5.90;5.40;;;;;;;17.09;74.19;101454.72;5031434;28;20456;-43
2022/09/07 07:05:09;;;;;;;6.63;5.17;;;;;;;17.17;74.08;101445.53;5031640;28;20466;-44
2022/09/07 07:07:37;;;;;;;5.73;5.23;;;;;;;17.17;73.52;101443.63;5032027;28;20434;-44
2022/09/07 07:10:06;;;;;;;5.53;5.13;;;;;;;17.26;73.02;101444.19;5031289;28;20459;-43
2022/09/07 07:12:35;;;;;;;7.07;5.93;;;;;;;17.30;72.53;101450.75;5031533;28;20489;-43
2022/09/07 07:15:01;;;;;;;6.33;5.87;;;;;;;17.39;71.97;101435.94;5031477;28;20424;-42
2022/09/07 07:17:29;;;;;;;6.13;5.63;;;;;;;17.52;71.69;101438.50;5031928;28;20432;-47
2022/09/07 07:19:56;;;;;;;6.73;5.00;;;;;;;17.62;70.62;101443.41;5031654;28;20462;-43
2022/09/07 07:22:24;;;;;;;6.00;5.60;;;;;;;17.74;70.66;101443.47;5032147;28;20448;-44
2022/09/07 07:25:12;;;;;;;5.70;5.20;;;;;;;17.82;70.61;101441.28;5031544;28;20435;-40
2022/09/07 07:27:41;;;;;;;5.43;5.13;;;;;;;17.79;69.77;101441.72;5031769;28;20439;-41
2022/09/07 07:30:09;;;;;;;5.37;5.13;;;;;;;17.76;69.69;101430.56;5031036;28;20464;-42
2022/09/07 07:32:37;;;;;;;6.07;5.30;;;;;;;17.67;70.22;101433.59;5031364;28;20475;-43
2022/09/07 07:35:07;;;;;;;7.13;6.00;;;;;;;17.60;70.51;101429.31;5031577;28;20443;-43
2022/09/07 07:37:35;;;;;;;6.87;6.27;;;;;;;17.57;71.05;101427.06;5031652;28;20432;-45
2022/09/07 07:40:04;;;;;;;5.90;5.60;;;;;;;17.48;71.28;101423.81;5031120;28;20521;-42
2022/09/07 07:42:53;;;;;;;5.83;5.43;;;;;;;17.48;70.95;101437.28;5031507;28;20412;-44
2022/09/07 07:45:21;;;;;;;6.87;6.10;;;;;;;17.45;70.63;101439.59;5031658;28;20505;-40
2022/09/07 07:48:11;;;;;;;6.30;5.93;;;;;;;17.39;70.83;101430.56;5031233;28;20491;-43
2022/09/07 07:50:39;;;;;;;6.97;6.27;;;;;;;17.36;70.97;101435.56;5031002;28;20522;-40
2022/09/07 07:53:06;;;;;;;6.20;5.70;;;;;;;17.39;70.95;101429.72;5022898;28;20506;-41
2022/09/07 07:55:57;;;;;;;6.53;5.93;;;;;;;17.40;71.26;101437.59;5018661;28;20424;-42
2022/09/07 07:58:26;;;;;;;10.07;6.30;;;;;;;17.47;71.45;101445.63;5031809;28;20945;-43
2022/09/07 08:00:55;;;;;;;7.13;6.63;;;;;;;17.52;71.73;101448.47;5031089;28;20517;-42
2022/09/07 08:03:24;;;;;;;5.90;5.60;;;;;;;17.51;70.96;101452.19;5031037;28;20844;-42
2022/09/07 08:05:52;;;;;;;6.20;5.70;;;;;;;17.54;70.96;101443.66;5031428;28;20821;-42
2022/09/07 08:08:21;;;;;;;6.27;5.97;;;;;;;17.55;70.39;101430.00;5031519;28;20437;-43
2022/09/07 08:10:49;;;;;;;6.67;5.63;;;;;;;17.57;70.77;101438.69;5031255;28;20483;-41
2022/09/07 08:13:17;;;;;;;6.40;5.87;;;;;;;17.62;71.34;101433.41;5031333;28;20468;-45
2022/09/07 08:15:46;;;;;;;11.17;6.33;;;;;;;17.59;71.65;101435.78;5031390;28;20432;-40
2022/09/07 08:18:15;;;;;;;7.57;6.20;;;;;;;17.66;71.17;101444.59;5031458;28;20436;-42
2022/09/07 08:20:43;;;;;;;6.40;6.03;;;;;;;17.83;71.80;101447.50;5030729;28;20472;-42
2022/09/07 08:23:11;;;;;;;6.10;5.80;;;;;;;18.00;71.83;101451.22;5031003;28;20495;-41
2022/09/07 08:25:38;;;;;;;6.27;5.97;;;;;;;18.11;70.71;101462.06;5033603;28;20435;-43
2022/09/07 08:28:06;;;;;;;6.07;5.67;;;;;;;18.20;70.89;101471.50;5034977;28;20595;-40
2022/09/07 08:30:33;;;;;;;6.63;6.13;;;;;;;18.28;71.31;101472.22;5033889;28;20464;-41
2022/09/07 08:33:02;;;;;;;5.87;5.37;;;;;;;18.27;70.71;101467.88;5034611;28;20471;-42
2022/09/07 08:35:30;;;;;;;8.93;6.10;;;;;;;18.22;70.78;101463.97;5034683;28;20436;-41
2022/09/07 08:37:57;;;;;;;12.80;6.37;;;;;;;18.27;72.31;101481.38;5034676;28;20501;-41
2022/09/07 08:40:25;;;;;;;6.90;6.40;;;;;;;18.31;73.50;101494.16;5034169;28;20525;-42
2022/09/07 08:43:07;;;;;;;6.13;5.73;;;;;;;18.33;74.34;101481.28;5034364;28;20502;-41
2022/09/07 08:45:39;;;;;;;7.03;6.47;;;;;;;18.33;74.44;101475.06;5034682;28;20501;-42
2022/09/07 08:48:13;;;;;;;7.20;6.80;;;;;;;18.28;74.85;101480.31;5034760;28;20408;-45
2022/09/07 08:50:52;;;;;;;17.73;7.63;;;;;;;18.26;75.81;101469.75;5033726;28;20864;-42
2022/09/07 08:53:21;;;;;;;8.70;6.70;;;;;;;18.21;76.71;101470.44;5025331;28;20530;-43
2022/09/07 08:55:52;;;;;;;7.20;6.60;;;;;;;18.20;76.91;101471.50;5027004;28;20432;-43
2022/09/07 08:58:24;;;;;;;7.30;6.60;;;;;;;18.19;77.08;101469.00;5034305;28;20909;-42
2022/09/07 09:01:13;;;;;;;7.70;7.10;;;;;;;18.15;77.00;101465.97;5033291;28;20550;-41
2022/09/07 09:04:03;;;;;;;6.50;5.83;;;;;;;18.17;78.04;101471.13;5033636;28;20460;-40
2022/09/07 09:07:07;;;;;;;6.10;5.80;;;;;;;18.15;78.43;101467.84;5034106;28;20427;-43
2022/09/07 09:09:57;;;;;;;7.17;6.77;;;;;;;18.13;78.42;101464.50;5033329;28;20438;-43
2022/09/07 09:12:33;;;;;;;6.40;6.00;;;;;;;18.17;79.71;101474.66;5031302;28;20464;-42
2022/09/07 09:15:14;;;;;;;5.80;5.50;;;;;;;18.23;80.66;101470.19;5034034;28;20466;-44
2022/09/07 09:17:47;;;;;;;5.97;5.47;;;;;;;18.29;80.99;101457.66;5033994;28;20431;-44
2022/09/07 09:20:23;;;;;;;5.77;5.23;;;;;;;18.37;82.13;101447.34;5033463;28;20522;-42
2022/09/07 09:22:51;;;;;;;6.50;5.90;;;;;;;18.39;80.41;101456.06;5034938;28;20427;-40
2022/09/07 09:25:21;;;;;;;6.40;5.80;;;;;;;18.41;79.44;101445.84;5035509;28;20874;-40
2022/09/07 09:27:49;;;;;;;6.70;6.20;;;;;;;18.39;78.52;101447.13;5034777;28;20787;-42
2022/09/07 09:30:19;;;;;;;6.00;5.50;;;;;;;18.39;78.09;101436.31;5032984;28;20460;-44
2022/09/07 09:32:48;;;;;;;6.77;6.17;;;;;;;18.32;77.79;101422.09;5033027;28;20488;-44
2022/09/07 09:35:27;;;;;;;5.90;5.40;;;;;;;18.12;78.67;101417.00;5033080;28;20435;-43
2022/09/07 09:37:56;;;;;;;5.90;5.40;;;;;;;17.96;77.69;101417.63;5032907;28;20511;-45
2022/09/07 09:40:27;;;;;;;6.83;5.77;;;;;;;17.89;77.97;101416.91;5032845;28;20464;-43
2022/09/07 09:43:00;;;;;;;6.23;5.87;;;;;;;17.79;77.69;101411.22;5033216;28;20789;-45
2022/09/07 09:45:31;;;;;;;6.63;5.90;;;;;;;17.79;78.15;101406.66;5033206;28;20435;-42
2022/09/07 09:48:21;;;;;;;5.87;5.33;;;;;;;17.79;78.76;101403.13;5033054;28;20948;-44
2022/09/07 09:50:54;;;;;;;6.23;5.63;;;;;;;17.73;81.52;101394.09;5032627;28;20463;-42
2022/09/07 09:53:53;;;;;;;7.17;5.87;;;;;;;17.78;82.57;101396.91;5020952;28;20468;-42
2022/09/07 09:56:21;;;;;;;6.10;5.60;;;;;;;17.75;83.04;101389.28;5030325;28;20440;-45
2022/09/07 09:58:49;;;;;;;6.37;5.87;;;;;;;17.64;83.64;101388.19;5033106;28;20494;-42
2022/09/07 10:01:36;;;;;;;5.90;5.33;;;;;;;17.59;86.23;101392.63;5032539;28;20542;-43
2022/09/07 10:04:31;;;;;;;10.63;5.93;;;;;;;17.60;87.21;101380.75;5032613;28;20460;-43
2022/09/07 10:07:08;;;;;;;6.00;5.60;;;;;;;17.55;87.00;101380.63;5032833;28;20485;-42
2022/09/07 10:09:39;;;;;;;7.20;6.60;;;;;;;17.48;87.16;101380.66;5032290;28;20428;-46
2022/09/07 10:12:20;;;;;;;6.53;6.00;;;;;;;17.44;87.21;101381.38;5032307;28;20965;-42
2022/09/07 10:14:48;;;;;;;9.83;6.30;;;;;;;17.35;88.60;101378.13;5032547;28;20526;-43
2022/09/07 10:17:23;;;;;;;11.53;6.70;;;;;;;17.46;87.67;101380.09;5032782;28;20432;-43
2022/09/07 10:19:50;;;;;;;7.90;6.30;;;;;;;17.49;86.78;101374.22;5032281;28;20459;-42
2022/09/07 10:22:29;;;;;;;6.00;5.40;;;;;;;17.59;86.75;101381.81;5032510;28;20452;-42
2022/09/07 10:24:57;;;;;;;6.67;5.67;;;;;;;17.74;87.63;101376.81;5032383;28;20432;-44
2022/09/07 10:27:30;;;;;;;6.00;5.40;;;;;;;17.89;86.94;101377.25;5032240;28;20491;-43
2022/09/07 10:29:58;;;;;;;6.57;6.00;;;;;;;18.04;87.03;101377.66;5032018;28;20490;-43
2022/09/07 10:32:42;;;;;;;9.67;5.97;;;;;;;18.18;86.13;101383.69;5032069;28;20506;-42
2022/09/07 10:35:17;;;;;;;5.70;5.20;;;;;;;18.39;86.67;101383.16;5032222;28;20549;-42
2022/09/07 10:37:53;;;;;;;6.63;5.97;;;;;;;18.41;83.53;101374.81;5030198;28;20436;-42
2022/09/07 10:40:28;;;;;;;6.60;6.03;;;;;;;18.53;83.75;101378.38;5024226;28;20509;-41
2022/09/07 10:43:06;;;;;;;7.23;6.00;;;;;;;18.58;82.21;101376.59;5032015;28;20431;-42
2022/09/07 10:46:14;;;;;;;6.53;5.93;;;;;;;18.65;80.73;101371.09;5032018;28;20801;-42
2022/09/07 10:49:12;;;;;;;7.43;6.17;;;;;;;18.70;80.93;101377.44;5031302;28;20513;-41
2022/09/07 10:51:46;;;;;;;6.80;6.20;;;;;;;18.76;80.55;101375.69;5028404;28;20515;-43
2022/09/07 10:54:25;;;;;;;7.00;6.30;;;;;;;18.87;81.36;101372.16;5019950;28;20467;-42
2022/09/07 10:57:05;;;;;;;6.90;6.00;;;;;;;18.91;80.59;101378.72;4992731;28;20437;-43
2022/09/07 10:59:47;;;;;;;7.27;6.40;;;;;;;18.83;80.16;101376.38;4992244;28;20483;-43
2022/09/07 11:02:48;;;;;;;6.77;5.87;;;;;;;18.87;81.50;101376.75;5052447;23;20503;-49
2022/09/07 11:05:49;;;;;;;6.73;6.03;;;;;;;18.76;81.38;101379.22;5031758;28;20462;-56
2022/09/07 11:08:32;;;;;;;6.07;5.47;;;;;;;18.73;82.11;101362.63;5032068;28;20551;-47
2022/09/07 11:11:27;;;;;;;6.57;5.93;;;;;;;18.66;83.58;101359.25;5031080;28;20495;-50
2022/09/07 11:14:18;;;;;;;6.43;5.73;;;;;;;18.63;83.73;101360.53;5031357;28;20573;-55
2022/09/07 11:16:52;;;;;;;8.00;5.60;;;;;;;18.46;84.02;101342.50;5031951;28;20440;-55
2022/09/07 11:19:26;;;;;;;8.07;5.40;;;;;;;18.37;84.17;101333.94;5031627;28;20986;-54
2022/09/07 11:22:22;;;;;;;5.50;5.10;;;;;;;18.27;85.92;101324.78;5031406;28;20440;-53
2022/09/07 11:24:56;;;;;;;8.20;5.80;;;;;;;18.15;86.11;101325.59;5031702;28;20482;-55
2022/09/07 11:27:50;;;;;;;5.97;5.47;;;;;;;18.08;88.10;101310.53;5031353;28;21012;-54
2022/09/07 11:30:21;;;;;;;6.17;5.70;;;;;;;18.07;88.12;101320.50;5031338;28;20514;-55
2022/09/07 11:32:56;;;;;;;7.77;6.47;;;;;;;18.25;88.22;101325.81;5031629;28;20448;-54
2022/09/07 11:35:31;;;;;;;5.80;5.30;;;;;;;18.34;87.44;101331.69;5031620;28;20528;-52
2022/09/07 11:38:05;;;;;;;5.90;5.50;;;;;;;18.45;85.94;101332.78;5031459;28;20423;-54
2022/09/07 11:40:36;;;;;;;8.60;6.40;;;;;;;18.57;85.98;101336.34;5031231;28;20514;-55
2022/09/07 11:43:16;;;;;;;6.37;5.80;;;;;;;18.64;84.20;101342.44;5031400;28;20428;-55
2022/09/07 11:45:49;;;;;;;6.10;5.70;;;;;;;18.66;83.48;101332.22;5031585;28;20431;-53
2022/09/07 11:48:21;;;;;;;6.50;6.00;;;;;;;18.73;83.74;101336.44;5031438;28;20432;-55
2022/09/07 11:50:52;;;;;;;7.07;5.93;;;;;;;18.82;81.67;101339.59;5030854;28;20459;-55
2022/09/07 11:53:24;;;;;;;6.63;6.00;;;;;;;18.72;80.59;101342.09;5022845;28;20431;-56